HUAL Seoul — LADO6 — position and weather

sailwx.info

Track history (hours):
 
Tides and Currents Weather Stations Pressure Air Temp Water Temp Dewpoint Dewpoint Depression Visibility Wind Speed Wind Dir Waves Ship Positions

HUAL Seoul

Last reported at 2016-Jan-22 14:33 UTC. Time now 2016-Feb-09 15:49 UTC.
Position N 36°23' E 014°40'.
Warning: this ship's position is 18 days out of date.

Type: Cargo ship. MMSI: 257496000.

Date/timePositionNaut miles runAvg speedWind from/ knotsBaromVisibWave heightAir tempDewpointWater temp
2016-Jan-22 14:33N 36°23' E 014°40'1515.5
2016-Jan-22 13:33N 36°27' E 014°22'1515.4
2016-Jan-22 12:33N 36°31' E 014°04'1515.2
2016-Jan-22 11:33N 36°36' E 013°46'1615.6
2016-Jan-22 10:31N 36°40' E 013°26'66115.2
2016-Jan-20 15:05N 39°22' W 000°07'814.9
2016-Jan-20 14:32N 39°25' W 000°17'2 1.7
2016-Jan-20 13:31N 39°27' W 000°18'0 0.0
2016-Jan-20 12:31N 39°27' W 000°18'0 0.0
2016-Jan-20 11:28N 39°27' W 000°18'0 0.0
2016-Jan-20 10:31N 39°27' W 000°18'0 0.0
2016-Jan-20 09:31N 39°27' W 000°18'0 0.0
2016-Jan-20 08:31N 39°27' W 000°18'0 0.0
2016-Jan-20 07:31N 39°27' W 000°18'0 0.0
2016-Jan-20 06:31N 39°27' W 000°18'2 2.4
2016-Jan-20 05:34N 39°25' W 000°16'4 4.3
2016-Jan-20 04:34N 39°24' W 000°11'8512.2
2016-Jan-19 21:33N 37°59' W 000°09'1515.1
2016-Jan-19 20:34N 37°47' W 000°19'1515.0
2016-Jan-19 19:33N 37°34' W 000°30'1514.3
2016-Jan-19 18:33N 37°24' W 000°43'1414.2
2016-Jan-19 17:34N 37°15' W 000°56'1514.6
2016-Jan-19 16:33N 37°05' W 001°10'3014.8
2016-Jan-19 14:31N 36°45' W 001°38'2015.0
2016-Jan-19 13:11N 36°30' W 001°56'914.8
2016-Jan-19 12:33N 36°24' W 002°04'1714.9
2016-Jan-19 11:24N 36°20' W 002°25'1314.9
2016-Jan-19 10:33N 36°18' W 002°40'12115.0
2016-Jan-19 02:31N 35°59' W 005°09'1414.7
2016-Jan-19 01:34N 35°58' W 005°26'6 0.3
2016-Jan-18 09:20N 35°54' W 005°30'3 2.6
2016-Jan-18 08:10N 35°54' W 005°34'1 2.1
2016-Jan-18 07:33N 35°53' W 005°35'3 2.0
2016-Jan-18 06:06N 35°55' W 005°32'3 6.2
2016-Jan-18 05:33N 35°55' W 005°37'1514.9
2016-Jan-18 04:33N 35°55' W 005°55'  
Track history (hours):
 
Tides and Currents Weather Stations Pressure Air Temp Water Temp Dewpoint Dewpoint Depression Visibility Wind Speed Wind Dir Waves Ship Positions

HUAL Seoul

Last reported at 2016-Jan-22 14:33 UTC. Time now 2016-Feb-09 15:49 UTC.
Position N 36°23' E 014°40'.
Warning: this ship's position is 18 days out of date.

Type: Cargo ship. MMSI: 257496000.

Date/timePositionNaut miles runAvg speedWind from/ knotsBaromVisibWave heightAir tempDewpointWater temp
2016-Jan-22 14:33N 36°23' E 014°40'1515.5
2016-Jan-22 13:33N 36°27' E 014°22'1515.4
2016-Jan-22 12:33N 36°31' E 014°04'1515.2
2016-Jan-22 11:33N 36°36' E 013°46'1615.6
2016-Jan-22 10:31N 36°40' E 013°26'66115.2
2016-Jan-20 15:05N 39°22' W 000°07'814.9
2016-Jan-20 14:32N 39°25' W 000°17'2 1.7
2016-Jan-20 13:31N 39°27' W 000°18'0 0.0
2016-Jan-20 12:31N 39°27' W 000°18'0 0.0
2016-Jan-20 11:28N 39°27' W 000°18'0 0.0
2016-Jan-20 10:31N 39°27' W 000°18'0 0.0
2016-Jan-20 09:31N 39°27' W 000°18'0 0.0
2016-Jan-20 08:31N 39°27' W 000°18'0 0.0
2016-Jan-20 07:31N 39°27' W 000°18'0 0.0
2016-Jan-20 06:31N 39°27' W 000°18'2 2.4
2016-Jan-20 05:34N 39°25' W 000°16'4 4.3
2016-Jan-20 04:34N 39°24' W 000°11'8512.2
2016-Jan-19 21:33N 37°59' W 000°09'1515.1
2016-Jan-19 20:34N 37°47' W 000°19'1515.0
2016-Jan-19 19:33N 37°34' W 000°30'1514.3
2016-Jan-19 18:33N 37°24' W 000°43'1414.2
2016-Jan-19 17:34N 37°15' W 000°56'1514.6
2016-Jan-19 16:33N 37°05' W 001°10'3014.8
2016-Jan-19 14:31N 36°45' W 001°38'2015.0
2016-Jan-19 13:11N 36°30' W 001°56'914.8
2016-Jan-19 12:33N 36°24' W 002°04'1714.9
2016-Jan-19 11:24N 36°20' W 002°25'1314.9
2016-Jan-19 10:33N 36°18' W 002°40'12115.0
2016-Jan-19 02:31N 35°59' W 005°09'1414.7
2016-Jan-19 01:34N 35°58' W 005°26'6 0.3
2016-Jan-18 09:20N 35°54' W 005°30'3 2.6
2016-Jan-18 08:10N 35°54' W 005°34'1 2.1
2016-Jan-18 07:33N 35°53' W 005°35'3 2.0
2016-Jan-18 06:06N 35°55' W 005°32'3 6.2
2016-Jan-18 05:33N 35°55' W 005°37'1514.9
2016-Jan-18 04:33N 35°55' W 005°55'  

Dump ship's entire track history